»·PEaware :: UAL1399 KMFR-KPDX

UAL1399 :: KMFR-KPDX

FLIGHT INFORMATION

Flight Status: Arrived
Operator:
United Airlines
More flights by this operator :: More flights under this callsign
Pilot: David C. (16084)
Aircraft: AIRBUS A320
(A320)
More flights by this aircraft type
Origin: KMFR Rogue Valley Intl-Medford
United States
Destination: KPDX Portland Intl
United States
More flights between these airports :: More routes between these airports
Route: BRUTE7 MOURN MOXEE TMBRS2
File this flight plan on PilotEdge
Remarks:
Altitude:
(Current/Filed)
29,000ft
Speed:
(Current/Filed)
468kts
Departed: 13-Mar-18 10:41 AM
Arrived: 13-Mar-18 11:24 AM
Distance/Time
Traveled:
193nm/0:43
Distance/Time
To Go:
Arrived

Flight Plot

Page will automatically refresh every two minutes.

Flight plan parsing failed; only flown route is shown


Map Options




Map Legend


Flown Route
Filed Route
Departure Airport
Arrival Airport
Navaid (VOR, NDB)
Fix

Horizontal Profiles

Position Reports

Time Latitude Longitude Heading Altitude Ground
Speed
13-Mar-18 10:13 42.368737 -122.873373 248 1342ft 0kts
13-Mar-18 10:14 42.368737 -122.873373 248 1342ft 0kts
13-Mar-18 10:15 42.368737 -122.873373 248 1342ft 0kts
13-Mar-18 10:16 42.368737 -122.873373 248 1342ft 0kts
13-Mar-18 10:17 42.368737 -122.873373 248 1342ft 0kts
13-Mar-18 10:18 42.368737 -122.873373 248 1342ft 0kts
13-Mar-18 10:19 42.368737 -122.873373 248 1342ft 0kts
13-Mar-18 10:20 42.368737 -122.873373 248 1342ft 0kts
13-Mar-18 10:21 42.368737 -122.873373 248 1342ft 0kts
13-Mar-18 10:22 42.368737 -122.873373 248 1342ft 0kts
13-Mar-18 10:23 42.368737 -122.873373 248 1342ft 0kts
13-Mar-18 10:24 42.368737 -122.873373 248 1342ft 0kts
13-Mar-18 10:25 42.368737 -122.873373 248 1342ft 0kts
13-Mar-18 10:26 42.368737 -122.873373 248 1342ft 0kts
13-Mar-18 10:27 42.368765 -122.873274 248 1342ft 2kts
13-Mar-18 10:28 42.369072 -122.872703 197 1342ft 2kts
13-Mar-18 10:29 42.369377 -122.872737 156 1342ft 0kts
13-Mar-18 10:30 42.369377 -122.872737 156 1342ft 0kts
13-Mar-18 10:31 42.369377 -122.872737 156 1342ft 0kts
13-Mar-18 10:32 42.369377 -122.872737 156 1342ft 0kts
13-Mar-18 10:33 42.369377 -122.872737 156 1342ft 0kts
13-Mar-18 10:34 42.369377 -122.872737 156 1342ft 0kts
13-Mar-18 10:35 42.368695 -122.872011 125 1342ft 15kts
13-Mar-18 10:36 42.364068 -122.869110 157 1342ft 18kts
13-Mar-18 10:37 42.363715 -122.868750 114 1342ft 0kts
13-Mar-18 10:38 42.363715 -122.868750 114 1342ft 0kts
13-Mar-18 10:39 42.364389 -122.867728 339 1342ft 0kts
13-Mar-18 10:40 42.372739 -122.872116 338 1343ft 136kts
13-Mar-18 10:41 42.418394 -122.878454 27 3462ft 208kts
13-Mar-18 10:42 42.434387 -122.800735 116 6295ft 245kts
13-Mar-18 10:43 42.408220 -122.716427 95 9430ft 258kts
13-Mar-18 10:44 42.419302 -122.620958 68 11356ft 273kts
13-Mar-18 10:45 42.493392 -122.612074 324 13314ft 324kts
13-Mar-18 10:46 42.576290 -122.665682 330 16065ft 345kts
13-Mar-18 10:47 42.665845 -122.715699 328 18591ft 360kts
13-Mar-18 10:48 42.711835 -122.818329 277 20881ft 326kts
13-Mar-18 10:49 42.733808 -122.936087 279 22973ft 339kts
13-Mar-18 10:50 42.823122 -122.986961 11 24688ft 417kts
13-Mar-18 10:51 42.936801 -122.997622 348 26738ft 414kts
13-Mar-18 10:52 43.051894 -122.994923 10 28415ft 426kts
13-Mar-18 10:53 43.170423 -122.969073 10 28946ft 461kts
13-Mar-18 10:54 43.301724 -122.940480 10 28937ft 504kts
13-Mar-18 10:55 43.443142 -122.909620 10 28930ft 535kts
13-Mar-18 10:56 43.589176 -122.877656 10 28940ft 537kts
13-Mar-18 10:57 43.735033 -122.845513 10 28951ft 537kts
13-Mar-18 10:58 43.881265 -122.813093 10 28952ft 537kts
13-Mar-18 10:59 44.026949 -122.780648 10 26818ft 535kts
13-Mar-18 11:00 44.167015 -122.751671 5 23483ft 518kts
13-Mar-18 11:01 44.306642 -122.737825 4 20756ft 506kts
13-Mar-18 11:02 44.440081 -122.724671 4 19021ft 469kts
13-Mar-18 11:03 44.556591 -122.713237 4 17870ft 401kts
13-Mar-18 11:04 44.662427 -122.702533 4 16260ft 387kts
13-Mar-18 11:05 44.764667 -122.692197 4 14403ft 375kts
13-Mar-18 11:06 44.856948 -122.682919 4 12921ft 353kts
13-Mar-18 11:07 44.931535 -122.675414 4 11932ft 329kts
13-Mar-18 11:08 45.009496 -122.667554 4 11002ft 311kts
13-Mar-18 11:09 45.087204 -122.659599 4 9740ft 309kts
13-Mar-18 11:10 45.163876 -122.651767 4 8466ft 305kts
13-Mar-18 11:11 45.246073 -122.642216 16 7059ft 300kts
13-Mar-18 11:12 45.315070 -122.584001 33 5721ft 291kts
13-Mar-18 11:13 45.379273 -122.526275 33 5081ft 262kts
13-Mar-18 11:14 45.432633 -122.471362 69 5055ft 239kts
13-Mar-18 11:15 45.415928 -122.396180 119 5078ft 188kts
13-Mar-18 11:16 45.441807 -122.344230 26 5017ft 195kts
13-Mar-18 11:17 45.489263 -122.340276 318 3346ft 184kts
13-Mar-18 11:18 45.515955 -122.392995 297 2802ft 148kts
13-Mar-18 11:19 45.534298 -122.440056 297 2039ft 142kts
13-Mar-18 11:20 45.552874 -122.487873 297 1332ft 139kts
13-Mar-18 11:21 45.571006 -122.534501 298 613ft 136kts
13-Mar-18 11:22 45.588575 -122.579598 299 38ft 107kts
13-Mar-18 11:23 45.592117 -122.591126 267 38ft 0kts
13-Mar-18 11:24 45.592117 -122.591126 267 38ft 0kts
13-Mar-18 11:25 45.591729 -122.592476 171 38ft 9kts
13-Mar-18 11:26 45.590244 -122.591574 208 38ft 0kts

Navigation Log

Ident Type
Flight plan parsing failed, navigation log unavailable